Time;durP1;ratioP1;P1;durP2;ratioP2;P2;SDS_P1;SDS_P2;PMS_P1;PMS_P2;Temp;Humidity;BMP_temperature;BMP_pressure;BME280_temperature;BME280_humidity;BME280_pressure;Samples;Min_cycle;Max_cycle;Signal;HPM_P1;HPM_P2
2023/05/03 00:00:08;;;;;;;3.10;2.90;;;;;;;12.89;59.62;148320.81;5090417;28;20199;-52
2023/05/03 00:06:21;;;;;;;4.63;3.20;;;;;;;12.97;60.11;148341.00;5092638;28;20234;-52
2023/05/03 00:09:11;;;;;;;4.53;3.00;;;;;;;12.95;60.11;148337.22;5092154;28;20814;-52
2023/05/03 00:12:07;;;;;;;3.43;3.00;;;;;;;12.93;59.97;148330.91;5090979;28;20711;-51
2023/05/03 00:17:51;;;;;;;3.40;3.10;;;;;;;12.76;60.31;148289.31;5089859;28;20680;-52
2023/05/03 00:24:04;;;;;;;;;;;;;;;;;;;;;
2023/05/03 00:30:25;;;;;;;;;;;;;;;;;;;;;
2023/05/03 00:33:19;;;;;;;3.03;2.70;;;;;;;12.82;60.07;148304.44;5072176;28;20215;-48
2023/05/03 00:39:15;;;;;;;;;;;;;;;;;;;;;
2023/05/03 00:51:06;;;;;;;3.60;2.90;;;;;;;12.91;60.22;148327.13;5089694;28;20246;-50
2023/05/03 00:54:17;;;;;;;3.90;2.77;;;;;;;12.89;59.98;148322.06;5092003;28;20196;-48
2023/05/03 00:57:13;;;;;;;3.47;2.87;;;;;;;12.96;60.27;148338.47;5091864;28;20285;-48
2023/05/03 01:00:36;;;;;;;;;;;;;;;;;;;;;
2023/05/03 01:06:39;;;;;;;4.27;3.30;;;;;;;12.78;61.75;148294.34;5077437;28;20215;-48
2023/05/03 01:09:51;;;;;;;4.23;3.00;;;;;;;12.81;62.45;148301.94;5090096;28;20318;-50
2023/05/03 01:13:07;;;;;;;4.20;2.70;;;;;;;12.78;61.16;148294.34;5089701;28;20248;-51
2023/05/03 01:16:28;;;;;;;3.03;2.77;;;;;;;12.74;61.33;148284.31;5090947;28;20191;-52
2023/05/03 01:19:39;;;;;;;3.67;3.27;;;;;;;12.61;61.70;148252.81;5090124;28;20270;-48
2023/05/03 01:22:24;;;;;;;7.07;3.07;;;;;;;12.63;62.18;148256.59;5087350;28;20221;-48
2023/05/03 01:25:20;;;;;;;4.00;2.83;;;;;;;12.69;62.31;148271.69;5089579;28;20274;-48
2023/05/03 01:27:56;;;;;;;3.20;3.00;;;;;;;12.71;62.67;148278.00;5087271;28;20604;-47
2023/05/03 01:30:29;;;;;;;3.80;3.40;;;;;;;12.68;62.52;148269.16;5088491;28;20219;-47
2023/05/03 01:33:07;;;;;;;3.30;3.00;;;;;;;12.71;62.50;148276.75;5087222;28;20288;-50
2023/05/03 01:36:05;;;;;;;4.20;3.30;;;;;;;12.63;63.58;148256.59;5087401;28;20191;-50
2023/05/03 01:39:05;;;;;;;2.90;2.70;;;;;;;12.63;63.86;148257.88;5090848;28;20253;-51
2023/05/03 01:48:15;;;;;;;9.97;3.37;;;;;;;12.58;63.67;148245.25;5088724;28;20203;-51
2023/05/03 01:50:57;;;;;;;3.60;3.30;;;;;;;12.53;64.31;148232.63;5087886;28;20302;-50
2023/05/03 01:56:47;;;;;;;3.67;2.97;;;;;;;12.36;63.97;148191.09;5090779;28;20202;-49
2023/05/03 02:00:04;;;;;;;4.43;3.67;;;;;;;12.33;64.41;148183.53;5090263;28;20199;-48
2023/05/03 02:02:57;;;;;;;3.53;3.23;;;;;;;12.23;64.58;148158.38;5090928;28;20195;-48
2023/05/03 02:06:05;;;;;;;4.57;3.10;;;;;;;12.19;65.58;148148.28;5089832;28;20400;-51
2023/05/03 02:11:47;;;;;;;5.80;3.07;;;;;;;12.32;64.33;148181.03;5087761;28;20324;-51
2023/05/03 02:18:06;;;;;;;4.17;3.63;;;;;;;12.31;63.83;148177.22;5087970;28;20285;-50
2023/05/03 02:21:26;;;;;;;3.10;2.90;;;;;;;12.24;64.33;148159.63;5090240;28;20690;-50
2023/05/03 02:24:34;;;;;;;7.33;3.00;;;;;;;12.18;64.01;148145.81;5089515;28;20192;-48
2023/05/03 02:27:34;;;;;;;4.37;3.10;;;;;;;12.12;64.66;148130.66;5086981;28;20687;-50
2023/05/03 02:30:38;;;;;;;10.57;4.30;;;;;;;12.01;66.44;148102.97;5088147;28;20674;-51
2023/05/03 02:33:24;;;;;;;3.33;2.90;;;;;;;12.02;66.14;148104.25;5089311;28;20295;-51
2023/05/03 02:36:15;;;;;;;4.40;3.17;;;;;;;11.98;66.06;148095.41;5089939;28;20218;-51
2023/05/03 02:39:13;;;;;;;4.90;2.97;;;;;;;12.07;66.13;148118.09;5089765;28;20235;-48
2023/05/03 02:42:08;;;;;;;5.17;3.10;;;;;;;12.14;65.22;148134.44;5089952;28;20191;-47
2023/05/03 02:45:09;;;;;;;5.20;3.00;;;;;;;12.12;65.08;148129.41;5087284;28;20195;-50
2023/05/03 02:48:09;;;;;;;3.43;3.03;;;;;;;12.09;65.77;148123.09;5076410;28;20207;-49
2023/05/03 02:51:20;;;;;;;5.10;3.50;;;;;;;12.05;66.68;148113.06;5084456;28;20219;-51
2023/05/03 02:53:56;;;;;;;4.30;3.00;;;;;;;12.05;66.55;148111.81;5083385;28;20187;-49
2023/05/03 02:57:00;;;;;;;3.53;3.23;;;;;;;11.98;66.49;148095.41;5089530;28;20194;-48
2023/05/03 03:02:40;;;;;;;3.70;3.40;;;;;;;11.89;68.65;148072.75;5085703;28;20596;-51
2023/05/03 03:08:50;;;;;;;6.47;3.50;;;;;;;11.79;70.97;148048.84;5080860;28;20668;-51
2023/05/03 03:11:26;;;;;;;5.63;3.37;;;;;;;11.76;71.79;148040.03;5088519;28;20262;-52
2023/05/03 03:13:59;;;;;;;4.33;3.50;;;;;;;11.65;72.33;148014.81;5083904;28;20298;-52
2023/05/03 03:16:57;;;;;;;5.50;3.70;;;;;;;11.60;73.00;148002.25;5089530;28;20199;-47
2023/05/03 03:19:25;;;;;;;6.80;3.90;;;;;;;11.63;72.99;148009.78;5088201;28;20211;-48
2023/05/03 03:22:02;;;;;;;4.50;4.10;;;;;;;11.65;73.33;148014.81;5089354;28;20195;-51
2023/05/03 03:24:35;;;;;;;5.03;4.50;;;;;;;11.55;74.08;147989.66;5089298;28;20202;-49
2023/05/03 03:27:04;;;;;;;5.57;4.00;;;;;;;11.55;74.11;147988.38;5087138;28;20195;-49
2023/05/03 03:29:34;;;;;;;6.63;4.27;;;;;;;11.50;74.83;147977.09;5085446;28;20199;-47
2023/05/03 03:32:04;;;;;;;8.73;4.00;;;;;;;11.48;75.50;147972.06;5081192;28;20679;-48
2023/05/03 03:34:38;;;;;;;4.77;4.00;;;;;;;11.47;76.21;147969.53;5085001;28;20221;-48
2023/05/03 03:37:14;;;;;;;4.67;4.27;;;;;;;11.47;76.66;147969.53;5084390;28;20640;-51
2023/05/03 03:39:52;;;;;;;8.70;4.47;;;;;;;11.47;77.48;147969.53;5085566;28;20711;-50
2023/05/03 03:42:32;;;;;;;5.80;4.50;;;;;;;11.44;77.99;147961.97;5084956;28;20234;-48
2023/05/03 03:45:06;;;;;;;5.03;4.47;;;;;;;11.41;78.62;147954.41;5081358;28;20219;-49
2023/05/03 03:47:56;;;;;;;5.23;4.10;;;;;;;11.43;78.92;147959.44;5085557;28;20666;-48
2023/05/03 03:50:36;;;;;;;5.77;4.63;;;;;;;11.42;79.44;147956.94;5085095;28;20215;-48
2023/05/03 03:53:10;;;;;;;5.53;4.40;;;;;;;11.43;79.94;147959.44;5084994;28;20237;-51
2023/05/03 03:56:06;;;;;;;4.30;3.90;;;;;;;11.49;81.33;147973.31;5086338;28;20537;-51
2023/05/03 03:59:08;;;;;;;5.20;4.20;;;;;;;11.51;81.55;147978.34;5088669;28;20196;-49
2023/05/03 04:02:07;;;;;;;4.67;4.27;;;;;;;11.50;83.22;147975.84;5082140;28;20190;-50
2023/05/03 04:05:06;;;;;;;5.07;4.60;;;;;;;11.41;84.69;147953.16;5068617;28;20612;-49
2023/05/03 04:07:53;;;;;;;5.40;4.70;;;;;;;11.35;88.54;147939.34;5068852;28;20679;-52
2023/05/03 04:10:51;;;;;;;8.10;4.90;;;;;;;11.37;92.89;147943.13;5067470;28;20228;-50
2023/05/03 04:13:48;;;;;;;6.77;5.03;;;;;;;11.35;89.92;147939.34;5068833;28;20257;-48
2023/05/03 04:20:18;;;;;;;6.07;5.47;;;;;;;11.27;92.30;147919.22;5071458;28;20661;-48
2023/05/03 04:23:25;;;;;;;;;;;;;;;;;;;;;
2023/05/03 04:41:43;;;;;;;10.53;7.40;;;;;;;11.37;100.00;147944.38;5089744;28;20278;-49
2023/05/03 04:44:32;;;;;;;10.43;8.57;;;;;;;11.34;100.00;147935.56;5089332;28;20195;-48
2023/05/03 04:47:20;;;;;;;9.20;6.73;;;;;;;11.33;100.00;147934.28;5088357;28;20195;-50
2023/05/03 04:50:20;;;;;;;14.47;8.10;;;;;;;11.24;100.00;147912.91;5091151;28;20274;-48
2023/05/03 04:53:17;;;;;;;10.37;7.67;;;;;;;11.24;100.00;147911.66;5090464;28;20254;-49
2023/05/03 04:56:24;;;;;;;9.87;7.87;;;;;;;11.20;100.00;147902.84;5091839;28;20203;-49
2023/05/03 04:58:56;;;;;;;12.63;8.37;;;;;;;11.22;100.00;147907.88;5082748;28;20203;-51
2023/05/03 05:01:47;;;;;;;15.87;8.03;;;;;;;11.06;100.00;147866.38;5071004;28;20196;-52
2023/05/03 05:04:45;;;;;;;10.97;8.53;;;;;;;10.95;100.00;147838.72;5070885;28;20303;-48
2023/05/03 05:07:19;;;;;;;31.43;22.17;;;;;;;10.93;100.00;147834.94;5071321;28;20196;-48
2023/05/03 05:10:07;;;;;;;36.23;27.20;;;;;;;10.98;100.00;147846.22;5087463;28;20242;-49
2023/05/03 05:12:41;;;;;;;15.47;13.63;;;;;;;10.93;100.00;147833.69;5088914;28;20214;-48
2023/05/03 05:15:15;;;;;;;12.13;9.40;;;;;;;10.88;100.00;147822.34;5087381;28;20203;-48
2023/05/03 05:17:48;;;;;;;10.10;7.80;;;;;;;10.83;100.00;147811.03;5090147;28;20252;-49
2023/05/03 05:20:29;;;;;;;8.80;7.87;;;;;;;10.85;100.00;147816.03;5089374;28;20222;-48
2023/05/03 05:23:22;;;;;;;13.10;8.10;;;;;;;10.85;100.00;147816.03;5089000;28;20191;-49
2023/05/03 05:26:08;;;;;;;9.13;7.70;;;;;;;10.90;100.00;147828.63;5087810;28;20203;-48
2023/05/03 05:28:37;;;;;;;7.97;6.57;;;;;;;10.93;100.00;147833.69;5088555;28;20196;-47
2023/05/03 05:31:23;;;;;;;7.77;7.03;;;;;;;10.87;100.00;147821.06;5090603;28;20308;-50
2023/05/03 05:34:24;;;;;;;7.90;7.13;;;;;;;10.88;100.00;147823.59;5090622;28;20214;-50
2023/05/03 05:36:56;;;;;;;8.83;7.30;;;;;;;10.83;100.00;147811.03;5089661;28;20191;-49
2023/05/03 05:39:37;;;;;;;7.40;6.70;;;;;;;10.89;100.00;147826.13;5090813;28;20195;-47
2023/05/03 05:45:07;;;;;;;8.57;7.77;;;;;;;10.90;100.00;147828.63;5089308;28;20199;-48
2023/05/03 05:48:03;;;;;;;10.77;8.30;;;;;;;10.95;100.00;147839.94;5083156;28;20199;-50
2023/05/03 05:50:40;;;;;;;9.37;8.00;;;;;;;11.01;100.00;147855.03;5090714;28;20199;-50
2023/05/03 05:53:15;;;;;;;8.33;7.60;;;;;;;11.06;100.00;147867.59;5089520;28;20223;-50
2023/05/03 05:55:54;;;;;;;7.77;7.07;;;;;;;11.16;100.00;147891.53;5087874;28;20203;-49
2023/05/03 05:58:44;;;;;;;8.30;7.50;;;;;;;11.30;100.00;147926.72;5088834;28;20222;-51
2023/05/03 06:04:35;;;;;;;13.10;9.57;;;;;;;11.53;100.00;147983.34;5084225;28;20657;-49
2023/05/03 06:07:08;;;;;;;15.60;12.90;;;;;;;11.60;100.00;148002.25;5090231;28;20651;-48
2023/05/03 06:10:10;;;;;;;20.07;14.70;;;;;;;11.78;100.00;148046.34;5089910;28;20238;-48
2023/05/03 06:15:43;;;;;;;8.80;8.00;;;;;;;11.87;100.00;148067.72;5068039;28;20224;-50
2023/05/03 06:18:35;;;;;;;9.73;8.30;;;;;;;12.00;100.00;148101.72;5069345;28;20599;-51
2023/05/03 06:24:35;;;;;;;9.27;8.10;;;;;;;12.13;100.00;148133.19;5066765;28;20364;-51
2023/05/03 06:27:04;;;;;;;8.33;7.50;;;;;;;12.25;100.00;148163.41;5076572;28;20699;-50
2023/05/03 06:29:51;;;;;;;8.37;7.57;;;;;;;12.24;100.00;148159.63;5074527;28;20219;-51
2023/05/03 06:33:01;;;;;;;9.40;7.30;;;;;;;12.31;100.00;148177.22;5086814;28;20262;-51
2023/05/03 06:35:42;;;;;;;8.37;7.60;;;;;;;12.36;100.00;148191.09;5088924;28;20288;-50
2023/05/03 06:41:37;;;;;;;9.53;7.93;;;;;;;12.45;100.00;148212.50;5088826;28;20207;-49
2023/05/03 06:44:23;;;;;;;8.67;7.87;;;;;;;12.63;100.00;148256.59;5089976;28;20264;-49
2023/05/03 06:47:19;;;;;;;10.53;8.33;;;;;;;12.55;100.00;148236.41;5089238;28;20191;-48
2023/05/03 06:50:21;;;;;;;9.37;7.20;;;;;;;12.94;100.00;148334.69;5088397;28;20191;-48
2023/05/03 06:53:21;;;;;;;8.20;7.47;;;;;;;13.32;100.00;148427.94;5089278;28;20310;-48
2023/05/03 06:59:29;;;;;;;8.93;8.13;;;;;;;14.25;100.00;148658.63;5089701;28;20196;-48
2023/05/03 07:02:08;;;;;;;9.60;8.67;;;;;;;14.77;100.00;148789.88;5087827;28;20192;-49
2023/05/03 07:04:37;;;;;;;7.27;6.57;;;;;;;15.42;99.07;148950.09;5089872;28;20214;-49
2023/05/03 07:07:38;;;;;;;7.50;6.80;;;;;;;16.05;91.77;149107.91;5089397;28;20206;-50
2023/05/03 07:10:28;;;;;;;18.23;6.13;;;;;;;16.05;90.27;149106.66;5088825;28;20232;-48
2023/05/03 07:13:14;;;;;;;8.00;7.00;;;;;;;16.07;89.32;149111.72;5089236;28;20223;-49
2023/05/03 07:15:56;;;;;;;7.23;6.60;;;;;;;16.33;89.42;149177.41;5087941;28;20199;-48
2023/05/03 07:19:23;;;;;;;7.03;6.53;;;;;;;16.74;86.84;149278.47;5089464;28;20583;-49
2023/05/03 07:22:20;;;;;;;6.90;6.33;;;;;;;16.65;84.30;149257.00;5088247;28;20199;-50
2023/05/03 07:25:16;;;;;;;9.73;7.43;;;;;;;17.08;86.10;149364.38;5088378;28;20876;-48
2023/05/03 07:28:19;;;;;;;6.50;6.00;;;;;;;17.68;74.82;149513.59;5089353;28;20199;-48
2023/05/03 07:30:56;;;;;;;7.93;6.17;;;;;;;18.09;73.20;149617.25;5088967;28;20286;-50
2023/05/03 07:33:42;;;;;;;7.57;6.83;;;;;;;17.63;76.30;149500.91;5089217;28;20313;-50
2023/05/03 07:36:23;;;;;;;9.23;6.87;;;;;;;18.34;73.37;149679.22;5089150;28;20671;-53
2023/05/03 07:38:57;;;;;;;7.15;6.47;;;;;;;19.82;64.89;150048.81;5086875;28;20195;-52
2023/05/03 07:42:00;;;;;;;8.55;6.70;;;;;;;20.89;60.65;150316.09;5088109;28;20201;-51
2023/05/03 07:44:45;;;;;;;5.78;5.32;;;;;;;21.21;55.21;150396.00;5088523;28;20256;-54
2023/05/03 07:47:26;;;;;;;6.22;5.63;;;;;;;21.38;56.10;150437.78;5089162;28;20217;-51
2023/05/03 07:50:16;;;;;;;11.88;6.30;;;;;;;21.50;55.34;150468.22;5089199;28;20207;-51
2023/05/03 07:52:52;;;;;;;7.53;5.50;;;;;;;21.92;54.26;150572.16;5092792;28;20659;-52
2023/05/03 07:55:49;;;;;;;6.13;5.60;;;;;;;22.64;50.05;150752.31;5092790;28;20206;-52
2023/05/03 07:58:45;;;;;;;5.80;5.40;;;;;;;21.24;53.43;150402.31;5092923;28;20196;-50
2023/05/03 08:05:22;;;;;;;6.35;5.78;;;;;;;21.48;53.93;150463.16;5091407;28;20241;-52
2023/05/03 08:11:17;;;;;;;5.60;5.30;;;;;;;21.01;53.31;150346.50;5051603;28;20205;-51
2023/05/03 08:20:20;;;;;;;6.30;5.60;;;;;;;20.36;57.54;150181.81;5052513;28;20209;-49
2023/05/03 08:23:26;;;;;;;5.97;5.38;;;;;;;20.93;53.39;150324.97;5052026;28;20200;-48
2023/05/03 08:38:11;;;;;;;5.63;5.22;;;;;;;19.53;60.36;149975.38;5031588;28;20603;-49
2023/05/03 08:41:10;;;;;;;6.18;5.68;;;;;;;19.79;59.14;150039.94;5029684;28;20248;-49
2023/05/03 08:44:12;;;;;;;7.47;6.03;;;;;;;20.08;57.83;150112.16;5031890;28;20199;-52
2023/05/03 08:47:15;;;;;;;6.82;5.90;;;;;;;20.37;55.05;150184.34;5031895;28;20258;-52
2023/05/03 08:50:11;;;;;;;6.90;6.07;;;;;;;20.59;54.91;150241.34;5029652;28;20583;-54
2023/05/03 08:57:04;;;;;;;6.47;6.00;;;;;;;19.59;58.02;149990.59;5031399;28;20202;-53
2023/05/03 09:00:10;;;;;;;7.00;6.30;;;;;;;19.94;57.86;150077.94;5031810;28;20201;-53
2023/05/03 09:03:14;;;;;;;7.97;5.97;;;;;;;20.72;55.85;150271.75;5034845;28;20569;-50
2023/05/03 09:06:25;;;;;;;6.90;6.03;;;;;;;21.39;52.08;150440.34;5048952;28;20584;-50
2023/05/03 09:09:19;;;;;;;7.25;6.50;;;;;;;22.25;49.57;150655.91;5060327;28;20238;-50
2023/05/03 09:12:06;;;;;;;6.60;6.10;;;;;;;22.60;48.90;150743.41;5091568;28;20200;-48
2023/05/03 09:18:14;;;;;;;5.63;5.10;;;;;;;22.69;47.45;150766.25;5091392;28;20623;-52
2023/05/03 09:21:24;;;;;;;;;;;;;;;;;;;;;
2023/05/03 09:24:07;;;;;;;5.25;4.85;;;;;;;22.29;48.85;150666.06;5078792;28;20210;-48
2023/05/03 09:30:23;;;;;;;5.93;5.60;;;;;;;21.37;50.19;150436.53;5086541;28;20229;-48
2023/05/03 09:33:22;;;;;;;7.22;6.28;;;;;;;21.32;51.06;150423.88;5090480;28;20214;-49
2023/05/03 09:36:08;;;;;;;6.57;5.93;;;;;;;19.95;55.73;150080.47;5088784;28;20378;-49
2023/05/03 09:38:55;;;;;;;7.20;6.60;;;;;;;19.79;57.07;150039.94;5083992;28;20256;-52
2023/05/03 09:45:33;;;;;;;10.07;6.40;;;;;;;19.45;61.09;149956.34;5068849;28;20208;-51
2023/05/03 09:48:19;;;;;;;7.47;6.53;;;;;;;19.75;59.35;150029.84;5065593;28;20200;-51
2023/05/03 09:51:13;;;;;;;8.30;7.30;;;;;;;20.58;55.97;150238.81;5075734;28;20687;-52
2023/05/03 09:54:22;;;;;;;13.43;12.07;;;;;;;20.81;55.55;150295.81;5090716;28;20223;-52
2023/05/03 09:57:03;;;;;;;6.80;6.30;;;;;;;20.86;55.97;150308.53;5090465;28;20210;-51
2023/05/03 10:00:17;;;;;;;8.48;6.30;;;;;;;19.57;58.89;149986.78;5090391;28;20256;-52
2023/05/03 10:03:08;;;;;;;6.55;5.95;;;;;;;19.09;62.71;149866.47;5090330;28;20275;-50
2023/05/03 10:09:18;;;;;;;7.75;5.95;;;;;;;18.75;63.50;149781.72;5078783;28;20227;-50
2023/05/03 10:12:03;;;;;;;6.70;6.20;;;;;;;18.67;64.43;149760.22;5069655;28;20657;-53
2023/05/03 10:14:50;;;;;;;7.32;6.47;;;;;;;18.69;65.26;149766.56;5069002;28;20667;-50
2023/05/03 10:17:40;;;;;;;8.18;6.35;;;;;;;18.74;65.76;149779.19;5081959;28;20294;-52
2023/05/03 10:20:33;;;;;;;6.72;6.03;;;;;;;18.61;66.24;149746.31;5085454;28;20594;-53
2023/05/03 10:23:26;;;;;;;8.82;6.88;;;;;;;18.52;66.54;149723.47;5087857;28;20696;-52
2023/05/03 10:26:29;;;;;;;6.78;6.22;;;;;;;18.47;67.45;149710.84;5086811;28;20221;-51
2023/05/03 10:29:33;;;;;;;12.40;6.93;;;;;;;18.47;68.68;149710.84;5087227;28;20195;-51
2023/05/03 10:32:06;;;;;;;8.18;6.30;;;;;;;18.32;68.04;149672.88;5087694;28;20234;-49
2023/05/03 10:34:44;;;;;;;7.15;6.50;;;;;;;18.07;68.64;149612.19;5088454;28;20655;-48
2023/05/03 10:37:37;;;;;;;7.13;6.53;;;;;;;17.88;70.37;149562.88;5084794;28;20230;-52
2023/05/03 10:40:22;;;;;;;7.10;6.37;;;;;;;17.79;70.07;149541.41;5085947;28;20203;-51
2023/05/03 10:43:04;;;;;;;6.20;5.80;;;;;;;18.36;68.66;149683.03;5086838;28;20679;-52
2023/05/03 10:45:45;;;;;;;8.55;6.10;;;;;;;18.54;67.09;149728.53;5086500;28;20194;-53
2023/05/03 10:48:27;;;;;;;6.72;6.22;;;;;;;18.69;66.81;149765.28;5086996;28;20245;-52
2023/05/03 10:51:46;;;;;;;9.05;6.68;;;;;;;18.88;66.83;149813.34;5084179;28;20198;-51
2023/05/03 10:54:35;;;;;;;6.55;5.95;;;;;;;18.98;65.43;149837.38;5079891;28;20255;-49
2023/05/03 10:57:13;;;;;;;11.15;6.80;;;;;;;19.09;65.04;149866.47;5085158;28;20198;-50
2023/05/03 11:00:09;;;;;;;11.75;6.65;;;;;;;18.85;65.00;149807.00;5085783;28;20681;-50
2023/05/03 11:03:07;;;;;;;9.60;5.80;;;;;;;18.84;66.07;149804.53;5085773;28;20206;-48
2023/05/03 11:05:43;;;;;;;5.70;5.05;;;;;;;18.59;67.12;149740.00;5087045;28;20199;-48
2023/05/03 11:08:19;;;;;;;5.35;5.05;;;;;;;18.41;68.59;149696.91;5086510;28;20190;-50
2023/05/03 11:11:15;;;;;;;5.88;5.47;;;;;;;18.36;69.86;149684.28;5091670;28;20246;-49
2023/05/03 11:14:12;;;;;;;6.63;5.88;;;;;;;18.24;70.60;149652.66;5088557;28;20223;-49
2023/05/03 11:17:17;;;;;;;6.68;5.97;;;;;;;17.91;73.40;149571.75;5088347;28;20214;-50
2023/05/03 11:20:06;;;;;;;6.50;5.93;;;;;;;17.87;74.46;149561.59;5087701;28;20195;-49
2023/05/03 11:26:00;;;;;;;13.63;5.83;;;;;;;17.61;75.15;149495.81;5091998;28;20195;-48
2023/05/03 11:35:05;;;;;;;7.47;6.60;;;;;;;17.56;80.83;149484.47;5092931;28;20222;-52
2023/05/03 11:40:40;;;;;;;6.53;5.90;;;;;;;17.39;79.17;149442.72;5091776;28;20234;-48
2023/05/03 11:46:35;;;;;;;6.30;5.70;;;;;;;17.19;82.69;149392.19;5092968;28;20199;-49
2023/05/03 11:49:25;;;;;;;7.40;6.57;;;;;;;17.00;81.16;149345.44;5092949;28;20234;-49
2023/05/03 11:52:19;;;;;;;6.33;5.20;;;;;;;16.95;71.99;149331.53;5092704;28;20187;-49
2023/05/03 11:57:48;;;;;;;5.77;5.23;;;;;;;16.88;70.82;149315.13;5092741;28;20207;-49
2023/05/03 12:00:40;;;;;;;5.73;5.30;;;;;;;16.83;71.33;149301.19;5092647;28;20636;-49
2023/05/03 12:03:48;;;;;;;5.23;4.83;;;;;;;16.68;72.69;149265.88;5090075;28;20242;-49
2023/05/03 12:06:51;;;;;;;6.23;5.63;;;;;;;16.67;74.52;149263.34;5090070;28;20211;-49
2023/05/03 12:09:35;;;;;;;7.00;6.37;;;;;;;16.62;76.09;149250.69;5092265;28;20231;-49
2023/05/03 12:12:36;;;;;;;12.00;6.17;;;;;;;16.53;78.80;149226.63;5091648;28;20209;-50
2023/05/03 12:15:43;;;;;;;7.03;6.40;;;;;;;16.47;80.93;149212.75;5089787;28;20230;-49
2023/05/03 12:18:32;;;;;;;8.03;6.90;;;;;;;16.23;83.59;149152.13;5081193;28;20219;-50
2023/05/03 12:21:25;;;;;;;9.47;6.80;;;;;;;16.10;85.51;149119.31;5090539;28;20306;-49
2023/05/03 12:24:16;;;;;;;12.93;6.57;;;;;;;16.24;84.24;149154.66;5071270;28;20216;-49
2023/05/03 12:27:02;;;;;;;7.00;6.50;;;;;;;16.35;83.50;149182.44;5071731;28;20700;-50
2023/05/03 12:32:53;;;;;;;9.53;6.70;;;;;;;16.64;80.47;149254.47;5070954;28;20670;-52
2023/05/03 12:36:01;;;;;;;7.50;6.40;;;;;;;16.79;79.17;149291.13;5070882;28;20587;-52
2023/05/03 12:39:10;;;;;;;9.37;6.43;;;;;;;16.85;78.47;149307.53;5070666;28;20743;-52
2023/05/03 12:42:04;;;;;;;11.53;7.43;;;;;;;16.85;77.95;149306.25;5066601;28;20219;-52
2023/05/03 12:47:30;;;;;;;6.63;6.03;;;;;;;16.91;76.02;149321.44;5090186;28;20230;-50
2023/05/03 12:50:23;;;;;;;7.60;6.00;;;;;;;17.02;76.06;149349.25;5086526;28;20226;-50
2023/05/03 12:53:41;;;;;;;6.33;5.40;;;;;;;17.11;74.17;149370.72;5091021;28;20239;-49
2023/05/03 12:56:29;;;;;;;7.03;6.03;;;;;;;17.06;73.54;149359.31;5081275;28;20246;-50
2023/05/03 13:05:18;;;;;;;6.80;5.23;;;;;;;17.24;73.17;149404.84;5067964;28;20216;-51
2023/05/03 13:08:04;;;;;;;5.33;4.93;;;;;;;17.11;73.70;149371.97;5071417;28;20287;-49
2023/05/03 13:10:54;;;;;;;7.93;5.33;;;;;;;17.04;76.32;149354.31;5085930;28;20227;-50
2023/05/03 13:13:44;;;;;;;6.30;5.70;;;;;;;16.98;80.17;149339.13;5089286;28;20195;-49
2023/05/03 13:19:32;;;;;;;6.17;5.67;;;;;;;17.08;78.89;149364.38;5090491;28;20218;-49
2023/05/03 13:22:02;;;;;;;6.60;5.30;;;;;;;17.17;77.70;149385.84;5088857;28;20199;-49
2023/05/03 13:24:52;;;;;;;5.00;4.60;;;;;;;17.14;76.01;149379.56;5090177;28;20558;-49
2023/05/03 13:27:38;;;;;;;7.90;4.73;;;;;;;17.04;75.08;149355.53;5088915;28;20199;-51
2023/05/03 13:33:04;;;;;;;5.30;4.90;;;;;;;16.91;77.51;149321.44;5088021;28;20675;-49
2023/05/03 13:38:46;;;;;;;8.57;6.80;;;;;;;16.84;77.83;149303.72;5088287;28;20683;-51
2023/05/03 13:45:06;;;;;;;5.27;4.80;;;;;;;16.62;78.35;149250.69;5089080;28;20196;-51
2023/05/03 13:48:11;;;;;;;5.10;4.60;;;;;;;16.50;78.10;149220.31;5089907;28;20220;-52
2023/05/03 13:51:10;;;;;;;7.30;4.70;;;;;;;16.50;78.69;149219.03;5090081;28;20233;-51
2023/05/03 13:53:40;;;;;;;5.27;4.77;;;;;;;16.46;78.09;149210.25;5070123;28;20220;-50
2023/05/03 13:56:09;;;;;;;5.43;4.93;;;;;;;16.32;78.75;149176.13;5088455;28;20230;-49
2023/05/03 13:58:45;;;;;;;5.73;5.13;;;;;;;16.32;81.49;149174.88;5087486;28;20219;-51
2023/05/03 14:01:26;;;;;;;5.00;4.47;;;;;;;16.23;83.87;149152.13;5086108;28;20702;-52
2023/05/03 14:04:02;;;;;;;6.93;4.97;;;;;;;16.22;86.60;149149.59;5084176;28;20238;-51
2023/05/03 14:06:46;;;;;;;5.57;4.80;;;;;;;16.28;86.63;149166.00;5085423;28;20222;-53
2023/05/03 14:09:24;;;;;;;6.07;5.47;;;;;;;16.22;89.53;149150.88;5088187;28;20235;-50
2023/05/03 14:12:02;;;;;;;6.00;5.30;;;;;;;16.32;91.30;149176.13;5086651;28;20211;-51
2023/05/03 14:14:45;;;;;;;5.73;5.23;;;;;;;16.31;92.07;149172.34;5086280;28;20215;-51
2023/05/03 14:20:45;;;;;;;7.03;5.97;;;;;;;16.42;93.81;149198.84;5087612;28;20202;-48
2023/05/03 14:26:52;;;;;;;6.80;6.20;;;;;;;16.94;90.69;149330.25;5087300;28;20191;-52
2023/05/03 14:29:47;;;;;;;7.53;5.87;;;;;;;17.04;87.29;149354.31;5083454;28;20287;-52
2023/05/03 14:32:43;;;;;;;7.60;6.63;;;;;;;17.08;86.85;149363.13;5089979;28;20203;-51
2023/05/03 14:38:32;;;;;;;9.10;6.17;;;;;;;16.94;86.07;149329.00;5085953;28;20211;-53
2023/05/03 14:43:59;;;;;;;6.37;5.57;;;;;;;16.95;86.26;149331.53;5084405;28;20594;-52
2023/05/03 14:49:19;;;;;;;5.23;4.90;;;;;;;17.09;82.99;149366.91;5067444;28;20204;-52
2023/05/03 14:52:13;;;;;;;5.30;4.90;;;;;;;17.13;82.36;149377.03;5071564;28;20200;-52
2023/05/03 14:55:00;;;;;;;5.43;4.93;;;;;;;17.11;78.97;149371.97;5068595;28;20215;-53
2023/05/03 14:57:57;;;;;;;5.07;4.60;;;;;;;17.18;78.93;149388.38;5069139;28;20200;-49
2023/05/03 15:00:48;;;;;;;8.20;4.90;;;;;;;17.21;80.09;149395.97;5066619;28;20275;-49
2023/05/03 15:03:17;;;;;;;5.70;5.20;;;;;;;17.28;78.95;149414.91;5081687;28;20203;-49
2023/05/03 15:05:50;;;;;;;5.70;4.43;;;;;;;17.25;78.73;149407.38;5087081;28;20190;-49
